Time;durP1;ratioP1;P1;durP2;ratioP2;P2;SDS_P1;SDS_P2;PMS_P1;PMS_P2;Temp;Humidity;BMP_temperature;BMP_pressure;BME280_temperature;BME280_humidity;BME280_pressure;Samples;Min_cycle;Max_cycle;Signal;HPM_P1;HPM_P2
2023/12/03 00:01:46;;;;;;;;;;;0.20;99.90;;;;;;5027535;28;20305;-58
2023/12/03 00:04:13;;;;;;;;;;;0.20;99.90;;;;;;5034725;28;20416;-59
2023/12/03 00:06:42;;;;;;;;;;;0.20;99.90;;;;;;5025183;28;20305;-59
2023/12/03 00:09:11;;;;;;;;;;;0.20;99.90;;;;;;5024091;28;19936;-60
2023/12/03 00:11:38;;;;;;;;;;;0.20;99.90;;;;;;5031425;28;19936;-60
2023/12/03 00:14:16;;;;;;;;;;;0.20;99.90;;;;;;5028340;28;19933;-59
2023/12/03 00:16:53;;;;;;;;;;;0.20;99.90;;;;;;5030992;28;19929;-59
2023/12/03 00:19:30;;;;;;;;;;;0.20;99.90;;;;;;5044287;28;20344;-59
2023/12/03 00:21:58;;;;;;;;;;;0.20;99.90;;;;;;5029215;28;19933;-61
2023/12/03 00:24:26;;;;;;;;;;;0.20;99.90;;;;;;5030410;28;19925;-59
2023/12/03 00:26:55;;;;;;;;;;;0.20;99.90;;;;;;5029819;28;19929;-58
2023/12/03 00:29:23;;;;;;;;;;;0.20;99.90;;;;;;5044538;28;20373;-58
2023/12/03 00:31:52;;;;;;;;;;;0.30;99.90;;;;;;5045869;28;19925;-58
2023/12/03 00:34:19;;;;;;;;;;;0.30;99.90;;;;;;5030371;28;19925;-58
2023/12/03 00:36:47;;;;;;;;;;;0.30;99.90;;;;;;5029212;28;19925;-58
2023/12/03 00:39:15;;;;;;;;;;;0.20;99.90;;;;;;5040502;28;19925;-58
2023/12/03 00:41:43;;;;;;;;;;;0.20;99.90;;;;;;5040330;28;19940;-59
2023/12/03 00:44:10;;;;;;;;;;;0.20;99.90;;;;;;5030357;28;19932;-59
2023/12/03 00:46:38;;;;;;;;;;;0.30;99.90;;;;;;5025176;28;19932;-59
2023/12/03 00:49:06;;;;;;;;;;;0.30;99.90;;;;;;5015144;28;20176;-59
2023/12/03 00:51:34;;;;;;;;;;;0.30;99.90;;;;;;5029499;28;19932;-57
2023/12/03 00:54:02;;;;;;;;;;;0.20;99.90;;;;;;5024898;28;19940;-58
2023/12/03 00:56:29;;;;;;;;;;;0.30;99.90;;;;;;5030467;28;19925;-57
2023/12/03 00:58:57;;;;;;;;;;;0.30;99.90;;;;;;5029958;28;19929;-59
2023/12/03 01:01:24;;;;;;;;;;;0.30;99.90;;;;;;5029697;28;19936;-59
2023/12/03 01:03:52;;;;;;;;;;;0.30;99.90;;;;;;5037182;28;19935;-58
2023/12/03 01:06:20;;;;;;;;;;;0.30;99.90;;;;;;5026920;28;19964;-58
2023/12/03 01:08:48;;;;;;;;;;;0.30;99.90;;;;;;5023074;28;20456;-59
2023/12/03 01:11:16;;;;;;;;;;;0.30;99.90;;;;;;5028803;28;20127;-58
2023/12/03 01:14:03;;;;;;;;;;;0.30;99.90;;;;;;5040484;28;19933;-59
2023/12/03 01:16:31;;;;;;;;;;;0.30;99.90;;;;;;5029453;28;19925;-58
2023/12/03 01:18:58;;;;;;;;;;;0.30;99.90;;;;;;5029923;28;19936;-58
2023/12/03 01:21:27;;;;;;;;;;;0.30;99.90;;;;;;5030094;28;19936;-59
2023/12/03 01:23:57;;;;;;;;;;;0.30;99.90;;;;;;5028326;28;19937;-59
2023/12/03 01:26:25;;;;;;;;;;;0.30;99.90;;;;;;5029833;28;19925;-59
2023/12/03 01:28:52;;;;;;;;;;;0.30;99.90;;;;;;5039063;28;19925;-59
2023/12/03 01:31:20;;;;;;;;;;;0.30;99.90;;;;;;5047910;28;19924;-59
2023/12/03 01:33:48;;;;;;;;;;;0.30;99.90;;;;;;5029141;28;19925;-58
2023/12/03 01:36:16;;;;;;;;;;;0.30;99.90;;;;;;5029655;28;19926;-58
2023/12/03 01:38:44;;;;;;;;;;;0.30;99.90;;;;;;5033233;28;20278;-58
2023/12/03 01:41:12;;;;;;;;;;;0.30;99.90;;;;;;5048595;28;20412;-59
2023/12/03 01:43:47;;;;;;;;;;;0.30;99.90;;;;;;5037800;28;19924;-57
2023/12/03 01:46:30;;;;;;;;;;;0.30;99.90;;;;;;5029065;28;19925;-57
2023/12/03 01:48:58;;;;;;;;;;;0.30;99.90;;;;;;5039493;28;19929;-59
2023/12/03 01:51:29;;;;;;;;;;;0.30;99.90;;;;;;5031353;28;19925;-57
2023/12/03 01:53:57;;;;;;;;;;;0.40;99.90;;;;;;5040239;28;19931;-58
2023/12/03 01:56:25;;;;;;;;;;;0.40;99.90;;;;;;5029345;28;19925;-57
2023/12/03 01:58:56;;;;;;;;;;;0.40;99.90;;;;;;5029588;28;19925;-59
2023/12/03 02:01:33;;;;;;;;;;;0.40;99.90;;;;;;5028704;28;19940;-57
2023/12/03 02:04:01;;;;;;;;;;;0.40;99.90;;;;;;5041361;28;19932;-59
2023/12/03 02:06:29;;;;;;;;;;;0.40;99.90;;;;;;5028294;28;19929;-57
2023/12/03 02:08:57;;;;;;;;;;;0.40;99.90;;;;;;5036136;28;19932;-58
2023/12/03 02:11:25;;;;;;;;;;;0.40;99.90;;;;;;5048608;28;19925;-57
2023/12/03 02:13:52;;;;;;;;;;;0.40;99.90;;;;;;5048575;28;19951;-58
2023/12/03 02:16:21;;;;;;;;;;;0.40;99.90;;;;;;5036239;28;20389;-58
2023/12/03 02:18:48;;;;;;;;;;;0.40;99.90;;;;;;5027324;28;19932;-57
2023/12/03 02:21:17;;;;;;;;;;;0.40;99.90;;;;;;5025948;28;19925;-57
2023/12/03 02:23:59;;;;;;;;;;;0.40;99.90;;;;;;5018249;28;20285;-58
2023/12/03 02:26:27;;;;;;;;;;;0.40;99.90;;;;;;5029154;28;19925;-60
2023/12/03 02:28:54;;;;;;;;;;;0.50;99.90;;;;;;5037910;28;20389;-60
2023/12/03 02:31:22;;;;;;;;;;;0.50;99.90;;;;;;5032766;28;20408;-59
2023/12/03 02:33:57;;;;;;;;;;;0.50;99.90;;;;;;5031023;28;19936;-58
2023/12/03 02:36:24;;;;;;;;;;;0.50;99.90;;;;;;5031722;28;19932;-58
2023/12/03 02:38:54;;;;;;;;;;;0.60;99.90;;;;;;5030765;28;19932;-57
2023/12/03 02:41:22;;;;;;;;;;;0.50;99.90;;;;;;5031508;28;19925;-60
2023/12/03 02:43:50;;;;;;;;;;;0.50;99.90;;;;;;5030797;28;19929;-58
2023/12/03 02:46:19;;;;;;;;;;;0.50;99.90;;;;;;5026220;28;19932;-59
2023/12/03 02:48:47;;;;;;;;;;;0.50;99.90;;;;;;5028705;28;19933;-58
2023/12/03 02:51:15;;;;;;;;;;;0.50;99.90;;;;;;5041114;28;19925;-59
2023/12/03 02:53:44;;;;;;;;;;;0.50;99.90;;;;;;5031862;28;20285;-59
2023/12/03 02:56:13;;;;;;;;;;;0.50;99.90;;;;;;5031808;28;19925;-58
2023/12/03 02:58:41;;;;;;;;;;;0.50;99.90;;;;;;5030933;28;19945;-57
2023/12/03 03:01:09;;;;;;;;;;;0.50;99.90;;;;;;5031460;28;19925;-58
2023/12/03 03:03:37;;;;;;;;;;;0.60;99.90;;;;;;5030540;28;19925;-58
2023/12/03 03:06:06;;;;;;;;;;;0.60;99.90;;;;;;5030926;28;19926;-58
2023/12/03 03:08:33;;;;;;;;;;;0.60;99.90;;;;;;5031067;28;19925;-57
2023/12/03 03:11:01;;;;;;;;;;;0.60;99.90;;;;;;5031468;28;20293;-58
2023/12/03 03:13:28;;;;;;;;;;;0.60;99.90;;;;;;5030290;28;19932;-56
2023/12/03 03:15:56;;;;;;;;;;;0.60;99.90;;;;;;5031608;28;19925;-58
2023/12/03 03:18:24;;;;;;;;;;;0.60;99.90;;;;;;5039442;28;19925;-57
2023/12/03 03:20:51;;;;;;;;;;;0.60;99.90;;;;;;5049650;28;19932;-58
2023/12/03 03:23:19;;;;;;;;;;;0.70;99.90;;;;;;5031534;28;19937;-59
2023/12/03 03:25:47;;;;;;;;;;;0.70;99.90;;;;;;5031430;28;19932;-58
2023/12/03 03:28:15;;;;;;;;;;;0.70;99.90;;;;;;5031459;28;19940;-60
2023/12/03 03:30:42;;;;;;;;;;;0.70;99.90;;;;;;5031618;28;19925;-59
2023/12/03 03:33:10;;;;;;;;;;;0.70;99.90;;;;;;4995274;28;20309;-58
2023/12/03 03:35:39;;;;;;;;;;;0.70;99.90;;;;;;5016739;28;19932;-58
2023/12/03 03:38:07;;;;;;;;;;;0.70;99.90;;;;;;5031336;28;19932;-58
2023/12/03 03:40:34;;;;;;;;;;;0.70;99.90;;;;;;5030634;28;19925;-59
2023/12/03 03:43:03;;;;;;;;;;;0.70;99.90;;;;;;5031060;28;20011;-58
2023/12/03 03:45:31;;;;;;;;;;;0.70;99.90;;;;;;5034639;28;19936;-58
2023/12/03 03:47:58;;;;;;;;;;;0.70;99.90;;;;;;5034742;28;19925;-60
2023/12/03 03:50:26;;;;;;;;;;;0.70;99.90;;;;;;5044528;28;20302;-59
2023/12/03 03:52:54;;;;;;;;;;;0.70;99.90;;;;;;5037014;28;20297;-58
2023/12/03 03:55:21;;;;;;;;;;;0.70;99.90;;;;;;5034949;28;19925;-60
2023/12/03 03:57:49;;;;;;;;;;;0.70;99.90;;;;;;5033965;28;19926;-59
2023/12/03 04:00:17;;;;;;;;;;;0.70;99.90;;;;;;5034643;28;19932;-57
2023/12/03 04:02:45;;;;;;;;;;;0.70;99.90;;;;;;5034458;28;19929;-59
2023/12/03 04:05:13;;;;;;;;;;;0.70;99.90;;;;;;5034911;28;19925;-59
2023/12/03 04:07:40;;;;;;;;;;;0.70;99.90;;;;;;5033279;28;20404;-58
2023/12/03 04:10:10;;;;;;;;;;;0.70;99.90;;;;;;5034177;28;19960;-59
2023/12/03 04:12:37;;;;;;;;;;;0.70;99.90;;;;;;5034586;28;19925;-59
2023/12/03 04:15:05;;;;;;;;;;;0.70;99.90;;;;;;5034602;28;20004;-58
2023/12/03 04:17:33;;;;;;;;;;;0.80;99.90;;;;;;5034578;28;19925;-58
2023/12/03 04:20:06;;;;;;;;;;;0.80;99.90;;;;;;5041404;28;19928;-56
2023/12/03 04:22:34;;;;;;;;;;;0.80;99.90;;;;;;5041060;28;19925;-57
2023/12/03 04:25:04;;;;;;;;;;;0.80;99.90;;;;;;5034407;28;20337;-57
2023/12/03 04:27:33;;;;;;;;;;;0.80;99.90;;;;;;5034684;28;19925;-58
2023/12/03 04:30:01;;;;;;;;;;;0.80;99.90;;;;;;5034576;28;19936;-59
2023/12/03 04:32:29;;;;;;;;;;;0.80;99.90;;;;;;5034114;28;19932;-57
2023/12/03 04:34:57;;;;;;;;;;;0.80;99.90;;;;;;5034141;28;19932;-59
2023/12/03 04:37:25;;;;;;;;;;;0.80;99.90;;;;;;5034222;28;19932;-59
2023/12/03 04:40:01;;;;;;;;;;;0.80;99.90;;;;;;5033121;28;19936;-59
2023/12/03 04:42:29;;;;;;;;;;;0.90;99.90;;;;;;5034113;28;19925;-59
2023/12/03 04:44:57;;;;;;;;;;;0.80;99.90;;;;;;5033063;28;19940;-59
2023/12/03 04:47:25;;;;;;;;;;;0.90;99.90;;;;;;5033980;28;19934;-57
2023/12/03 04:49:52;;;;;;;;;;;0.90;99.90;;;;;;5038879;28;19925;-58
2023/12/03 04:52:20;;;;;;;;;;;0.90;99.90;;;;;;5037196;28;19996;-58
2023/12/03 04:54:49;;;;;;;;;;;0.90;99.90;;;;;;5032208;28;20400;-58
2023/12/03 04:57:17;;;;;;;;;;;0.90;99.90;;;;;;5033490;28;19947;-59
2023/12/03 04:59:45;;;;;;;;;;;0.90;99.90;;;;;;5033245;28;20381;-58
2023/12/03 05:02:12;;;;;;;;;;;0.90;99.90;;;;;;5032121;28;19925;-59
2023/12/03 05:04:40;;;;;;;;;;;0.90;99.90;;;;;;5033227;28;20031;-59
2023/12/03 05:07:08;;;;;;;;;;;0.90;99.90;;;;;;5033902;28;20309;-57
2023/12/03 05:09:38;;;;;;;;;;;0.90;99.90;;;;;;5033051;28;20388;-58
2023/12/03 05:12:16;;;;;;;;;;;0.90;99.90;;;;;;5033333;28;19925;-58
2023/12/03 05:14:44;;;;;;;;;;;0.90;99.90;;;;;;5032728;28;19972;-58
2023/12/03 05:17:11;;;;;;;;;;;0.90;99.90;;;;;;5033717;28;19925;-58
2023/12/03 05:19:41;;;;;;;;;;;0.90;99.90;;;;;;5036279;28;19925;-58
2023/12/03 05:22:09;;;;;;;;;;;0.90;99.90;;;;;;5044952;28;19925;-59
2023/12/03 05:24:37;;;;;;;;;;;0.90;99.90;;;;;;5032830;28;20309;-59
2023/12/03 05:27:05;;;;;;;;;;;0.90;99.90;;;;;;5033251;28;19925;-59
2023/12/03 05:29:33;;;;;;;;;;;0.90;99.90;;;;;;5033464;28;19932;-58
2023/12/03 05:32:01;;;;;;;;;;;0.90;99.90;;;;;;5033534;28;20393;-59
2023/12/03 05:34:29;;;;;;;;;;;0.90;99.90;;;;;;5029630;28;19932;-58
2023/12/03 05:36:57;;;;;;;;;;;0.90;99.90;;;;;;5033332;28;20401;-58
2023/12/03 05:39:25;;;;;;;;;;;0.90;99.90;;;;;;5033047;28;19937;-58
2023/12/03 05:41:53;;;;;;;;;;;0.90;99.90;;;;;;5032380;28;20329;-58
2023/12/03 05:44:21;;;;;;;;;;;0.90;99.90;;;;;;5033025;28;19925;-58
2023/12/03 05:46:50;;;;;;;;;;;1.00;99.90;;;;;;5032621;28;19932;-57
2023/12/03 05:49:18;;;;;;;;;;;1.00;99.90;;;;;;5019349;28;20305;-58
2023/12/03 05:51:51;;;;;;;;;;;1.00;99.90;;;;;;5028436;28;19925;-58
2023/12/03 05:54:18;;;;;;;;;;;1.00;99.90;;;;;;5028378;28;20270;-59
2023/12/03 05:56:46;;;;;;;;;;;1.00;99.90;;;;;;5020256;28;19936;-58
2023/12/03 05:59:16;;;;;;;;;;;1.00;99.90;;;;;;5035087;28;19925;-58
2023/12/03 06:01:45;;;;;;;;;;;1.00;99.90;;;;;;5025344;28;20394;-58
2023/12/03 06:04:13;;;;;;;;;;;1.00;99.90;;;;;;5005075;28;19940;-58
2023/12/03 06:06:41;;;;;;;;;;;1.00;99.90;;;;;;5015965;28;20389;-57
2023/12/03 06:09:09;;;;;;;;;;;1.00;99.90;;;;;;5031496;28;19936;-57
2023/12/03 06:11:37;;;;;;;;;;;1.00;99.90;;;;;;5014967;28;19932;-59
2023/12/03 06:14:04;;;;;;;;;;;1.00;99.90;;;;;;5048093;28;19925;-58
2023/12/03 06:16:32;;;;;;;;;;;1.00;99.90;;;;;;5035359;28;19925;-56
2023/12/03 06:19:00;;;;;;;;;;;1.00;99.90;;;;;;5044863;28;20282;-59
2023/12/03 06:21:29;;;;;;;;;;;1.00;99.90;;;;;;5046540;28;19931;-59
2023/12/03 06:23:57;;;;;;;;;;;1.00;99.90;;;;;;5044242;28;20316;-58
2023/12/03 06:26:30;;;;;;;;;;;1.00;99.90;;;;;;5030894;28;19937;-58
2023/12/03 06:28:58;;;;;;;;;;;1.10;99.90;;;;;;5023622;28;19932;-57
2023/12/03 06:31:37;;;;;;;;;;;1.10;99.90;;;;;;5025289;28;19925;-59
2023/12/03 06:34:05;;;;;;;;;;;1.10;99.90;;;;;;5027252;28;20757;-59
2023/12/03 06:36:33;;;;;;;;;;;1.10;99.90;;;;;;5028535;28;19936;-57
2023/12/03 06:39:02;;;;;;;;;;;1.10;99.90;;;;;;5028273;28;20392;-58
2023/12/03 06:41:31;;;;;;;;;;;1.10;99.90;;;;;;5020874;28;19925;-57
2023/12/03 06:43:59;;;;;;;;;;;1.10;99.90;;;;;;5026450;28;20017;-57
2023/12/03 06:46:27;;;;;;;;;;;1.10;99.90;;;;;;5027771;28;19925;-59
2023/12/03 06:48:55;;;;;;;;;;;1.10;99.90;;;;;;5028010;28;19932;-58
2023/12/03 06:51:23;;;;;;;;;;;1.00;99.90;;;;;;5044673;28;19929;-56
2023/12/03 06:53:51;;;;;;;;;;;1.10;99.90;;;;;;5048239;28;19925;-56
2023/12/03 06:56:19;;;;;;;;;;;1.00;99.90;;;;;;5029146;28;20385;-57
2023/12/03 06:58:47;;;;;;;;;;;1.00;99.90;;;;;;5042037;28;20507;-56
2023/12/03 07:01:16;;;;;;;;;;;1.00;99.90;;;;;;5046821;28;19929;-57
2023/12/03 07:03:45;;;;;;;;;;;1.00;99.90;;;;;;5029106;28;19932;-59
2023/12/03 07:06:14;;;;;;;;;;;1.10;99.90;;;;;;5025460;28;19929;-59
2023/12/03 07:08:46;;;;;;;;;;;1.00;99.90;;;;;;5041449;28;19932;-59
2023/12/03 07:11:23;;;;;;;;;;;1.00;99.90;;;;;;5033574;28;19933;-59
2023/12/03 07:13:52;;;;;;;;;;;1.10;99.90;;;;;;5032603;28;19929;-58
2023/12/03 07:16:20;;;;;;;;;;;1.00;99.90;;;;;;5026073;28;19936;-59
2023/12/03 07:18:48;;;;;;;;;;;1.00;99.90;;;;;;5020775;28;19929;-58
2023/12/03 07:21:17;;;;;;;;;;;1.10;99.90;;;;;;5034926;28;19925;-59
2023/12/03 07:23:48;;;;;;;;;;;1.00;99.90;;;;;;5032000;28;19929;-59
2023/12/03 07:26:16;;;;;;;;;;;1.00;99.90;;;;;;5029541;28;20313;-59
2023/12/03 07:28:47;;;;;;;;;;;1.00;99.90;;;;;;5025982;28;19929;-59
2023/12/03 07:31:15;;;;;;;;;;;1.00;99.90;;;;;;5024175;28;19929;-59
2023/12/03 07:33:43;;;;;;;;;;;1.00;99.90;;;;;;5035906;28;20381;-58
2023/12/03 07:36:13;;;;;;;;;;;1.00;99.90;;;;;;5028584;28;19934;-59
2023/12/03 07:38:43;;;;;;;;;;;1.00;99.90;;;;;;5041537;28;19925;-58
2023/12/03 07:41:11;;;;;;;;;;;1.00;99.90;;;;;;5038108;28;19934;-59
2023/12/03 07:43:38;;;;;;;;;;;1.00;99.90;;;;;;5032376;28;19925;-59
2023/12/03 07:46:06;;;;;;;;;;;1.00;99.90;;;;;;5029213;28;19925;-59
2023/12/03 07:48:34;;;;;;;;;;;1.00;99.90;;;;;;5031571;28;19929;-57
2023/12/03 07:51:08;;;;;;;;;;;1.00;99.90;;;;;;5045678;28;20384;-58
2023/12/03 07:53:36;;;;;;;;;;;1.10;99.90;;;;;;5036837;28;19932;-59
2023/12/03 07:56:03;;;;;;;;;;;1.10;99.90;;;;;;5029966;28;19926;-58
2023/12/03 07:58:31;;;;;;;;;;;1.00;99.90;;;;;;5031536;28;19925;-58
2023/12/03 08:01:00;;;;;;;;;;;1.00;99.90;;;;;;5023825;28;19926;-59
2023/12/03 08:03:27;;;;;;;;;;;1.00;99.90;;;;;;5029953;28;19925;-59
2023/12/03 08:05:55;;;;;;;;;;;1.00;99.90;;;;;;5026998;28;19932;-58
2023/12/03 08:08:23;;;;;;;;;;;1.10;99.90;;;;;;5041289;28;19929;-59
2023/12/03 08:10:51;;;;;;;;;;;1.10;99.90;;;;;;5038648;28;19925;-58
2023/12/03 08:13:19;;;;;;;;;;;1.10;99.90;;;;;;5029842;28;19928;-58
2023/12/03 08:15:47;;;;;;;;;;;1.10;99.90;;;;;;5030385;28;20542;-58
2023/12/03 08:18:15;;;;;;;;;;;1.10;99.90;;;;;;5026615;28;19925;-58
2023/12/03 08:20:42;;;;;;;;;;;1.10;99.90;;;;;;5040102;28;19951;-59
2023/12/03 08:23:10;;;;;;;;;;;1.10;99.90;;;;;;5040193;28;19936;-57
2023/12/03 08:25:38;;;;;;;;;;;1.10;99.90;;;;;;5029980;28;19929;-58
2023/12/03 08:28:06;;;;;;;;;;;1.10;99.90;;;;;;5026963;28;19932;-60
2023/12/03 08:30:34;;;;;;;;;;;1.10;99.90;;;;;;5025745;28;19929;-59
2023/12/03 08:33:02;;;;;;;;;;;1.10;99.90;;;;;;5026536;28;19925;-58
2023/12/03 08:35:31;;;;;;;;;;;1.10;99.90;;;;;;5027435;28;19940;-60
2023/12/03 08:38:00;;;;;;;;;;;1.10;99.90;;;;;;5034432;28;19925;-59
2023/12/03 08:40:28;;;;;;;;;;;1.10;99.90;;;;;;5034346;28;19936;-59
2023/12/03 08:42:56;;;;;;;;;;;1.20;99.90;;;;;;5021853;28;19929;-59
2023/12/03 08:45:24;;;;;;;;;;;1.20;99.90;;;;;;5030391;28;19925;-58
2023/12/03 08:47:54;;;;;;;;;;;1.20;99.90;;;;;;5030230;28;20393;-57
2023/12/03 08:50:27;;;;;;;;;;;1.20;99.90;;;;;;5030768;28;19925;-58
2023/12/03 08:52:55;;;;;;;;;;;1.30;99.90;;;;;;5029698;28;19933;-58
2023/12/03 08:55:23;;;;;;;;;;;1.30;99.90;;;;;;5030685;28;19925;-58
2023/12/03 08:57:51;;;;;;;;;;;1.30;99.90;;;;;;5028098;28;19925;-59
2023/12/03 09:00:19;;;;;;;;;;;1.30;99.90;;;;;;5030957;28;19924;-58
2023/12/03 09:02:47;;;;;;;;;;;1.30;99.90;;;;;;5029858;28;19936;-59
2023/12/03 09:05:16;;;;;;;;;;;1.30;99.90;;;;;;5029971;28;19925;-59
2023/12/03 09:07:44;;;;;;;;;;;1.40;99.90;;;;;;5029403;28;20402;-58
2023/12/03 09:10:12;;;;;;;;;;;1.40;99.90;;;;;;5029742;28;19925;-59
2023/12/03 09:12:42;;;;;;;;;;;1.40;99.90;;;;;;5028767;28;20262;-58
2023/12/03 09:15:10;;;;;;;;;;;1.30;99.90;;;;;;5027088;28;19933;-58
2023/12/03 09:17:38;;;;;;;;;;;1.40;99.90;;;;;;5029864;28;20282;-59
2023/12/03 09:20:09;;;;;;;;;;;1.50;99.90;;;;;;5029840;28;20373;-58
2023/12/03 09:22:46;;;;;;;;;;;1.50;99.90;;;;;;5028566;28;19929;-58
2023/12/03 09:25:17;;;;;;;;;;;1.50;99.90;;;;;;5027950;28;19925;-57
2023/12/03 09:27:44;;;;;;;;;;;1.50;99.90;;;;;;5024390;28;19925;-57
2023/12/03 09:30:12;;;;;;;;;;;1.50;99.90;;;;;;5029774;28;19925;-59
2023/12/03 09:32:40;;;;;;;;;;;1.50;99.90;;;;;;5030080;28;19932;-57
2023/12/03 09:35:08;;;;;;;;;;;1.50;99.90;;;;;;5029686;28;19929;-58
2023/12/03 09:37:36;;;;;;;;;;;1.60;99.90;;;;;;5028291;28;19940;-58
2023/12/03 09:40:04;;;;;;;;;;;1.60;99.90;;;;;;5020770;28;19926;-58
2023/12/03 09:42:34;;;;;;;;;;;1.60;99.90;;;;;;5021266;28;19933;-58
2023/12/03 09:45:07;;;;;;;;;;;1.60;99.90;;;;;;5010420;28;20005;-56
2023/12/03 09:47:37;;;;;;;;;;;1.70;99.90;;;;;;5022984;28;19929;-58
2023/12/03 09:50:06;;;;;;;;;;;1.70;99.90;;;;;;5029406;28;19932;-57
2023/12/03 09:52:39;;;;;;;;;;;1.70;99.90;;;;;;5028907;28;19932;-58
2023/12/03 09:55:07;;;;;;;;;;;1.80;99.90;;;;;;5028693;28;19925;-60
2023/12/03 09:57:36;;;;;;;;;;;1.70;99.90;;;;;;5027403;28;20328;-58
2023/12/03 10:00:07;;;;;;;;;;;1.80;99.90;;;;;;5031890;28;19925;-58
2023/12/03 10:02:38;;;;;;;;;;;1.80;99.90;;;;;;5032881;28;19929;-58
2023/12/03 10:05:09;;;;;;;;;;;1.80;99.90;;;;;;5026200;28;19925;-57
2023/12/03 10:07:38;;;;;;;;;;;1.80;99.90;;;;;;5031363;28;19925;-57
2023/12/03 10:10:06;;;;;;;;;;;1.80;99.90;;;;;;5033097;28;19929;-58
2023/12/03 10:12:43;;;;;;;;;;;1.80;99.90;;;;;;5033003;28;19925;-58
2023/12/03 10:15:11;;;;;;;;;;;1.90;99.90;;;;;;5032126;28;19933;-57
2023/12/03 10:17:40;;;;;;;;;;;1.90;99.90;;;;;;5028062;28;19930;-58
2023/12/03 10:20:25;;;;;;;;;;;1.90;99.90;;;;;;5028861;28;19935;-58
2023/12/03 10:22:55;;;;;;;;;;;1.90;99.90;;;;;;5028045;28;20286;-58
2023/12/03 10:25:26;;;;;;;;;;;2.00;99.90;;;;;;5028766;28;19926;-58
2023/12/03 10:27:54;;;;;;;;;;;1.90;99.90;;;;;;5026086;28;19929;-58
2023/12/03 10:30:22;;;;;;;;;;;2.00;99.90;;;;;;5028626;28;19932;-58
2023/12/03 10:32:50;;;;;;;;;;;2.00;99.90;;;;;;5029460;28;20377;-57
2023/12/03 10:35:21;;;;;;;;;;;2.00;99.90;;;;;;5028179;28;20394;-59
2023/12/03 10:37:50;;;;;;;;;;;2.00;99.90;;;;;;5028392;28;19925;-59
2023/12/03 10:40:18;;;;;;;;;;;2.10;99.90;;;;;;5028437;28;19924;-59
2023/12/03 10:42:46;;;;;;;;;;;2.10;99.90;;;;;;5025657;28;19929;-58
2023/12/03 10:45:15;;;;;;;;;;;2.10;99.90;;;;;;5027728;28;20509;-60
2023/12/03 10:47:44;;;;;;;;;;;2.10;99.90;;;;;;5032032;28;19925;-58
2023/12/03 10:50:12;;;;;;;;;;;2.10;99.90;;;;;;5037052;28;19929;-58
2023/12/03 10:52:40;;;;;;;;;;;2.10;99.90;;;;;;5027315;28;20297;-59
2023/12/03 10:55:08;;;;;;;;;;;2.10;99.90;;;;;;5028325;28;20440;-59
2023/12/03 10:58:03;;;;;;;;;;;2.10;99.90;;;;;;5026767;28;19932;-58
2023/12/03 11:00:36;;;;;;;;;;;2.10;99.90;;;;;;5026768;28;20416;-60
2023/12/03 11:03:16;;;;;;;;;;;2.10;99.90;;;;;;5023034;28;19925;-57
2023/12/03 11:05:52;;;;;;;;;;;2.10;99.90;;;;;;5017950;28;21912;-58
2023/12/03 11:08:21;;;;;;;;;;;2.10;99.90;;;;;;5028256;28;20580;-58
2023/12/03 11:10:50;;;;;;;;;;;2.10;99.90;;;;;;5028401;28;19933;-59
2023/12/03 11:13:19;;;;;;;;;;;2.10;99.90;;;;;;5026960;28;19929;-59
2023/12/03 11:15:56;;;;;;;;;;;2.10;99.90;;;;;;5019704;28;19929;-59
2023/12/03 11:18:25;;;;;;;;;;;2.10;99.90;;;;;;5037052;28;19931;-58
2023/12/03 11:20:54;;;;;;;;;;;2.10;99.90;;;;;;5031168;28;19932;-57
2023/12/03 11:23:25;;;;;;;;;;;2.10;99.90;;;;;;5029750;28;19936;-57
2023/12/03 11:26:04;;;;;;;;;;;2.10;99.90;;;;;;5025642;28;20332;-60
2023/12/03 11:28:32;;;;;;;;;;;2.20;99.90;;;;;;5015770;28;19933;-57
2023/12/03 11:31:00;;;;;;;;;;;2.20;99.90;;;;;;5018810;28;19932;-59
2023/12/03 11:33:28;;;;;;;;;;;2.10;99.90;;;;;;5038671;28;19925;-58
2023/12/03 11:35:58;;;;;;;;;;;2.10;99.90;;;;;;5048206;28;20266;-58
2023/12/03 11:38:26;;;;;;;;;;;2.10;99.90;;;;;;5024845;28;19925;-58
2023/12/03 11:40:55;;;;;;;;;;;2.10;99.90;;;;;;5025487;28;20377;-58
2023/12/03 11:43:25;;;;;;;;;;;2.10;99.90;;;;;;5024418;28;19926;-58
2023/12/03 11:45:54;;;;;;;;;;;2.10;99.90;;;;;;5027983;28;20309;-58
2023/12/03 11:48:23;;;;;;;;;;;2.10;99.90;;;;;;5036299;28;20376;-58
2023/12/03 11:50:51;;;;;;;;;;;2.10;99.90;;;;;;5028023;28;19927;-57
2023/12/03 11:53:24;;;;;;;;;;;2.20;99.90;;;;;;5028014;28;19924;-56
2023/12/03 11:55:51;;;;;;;;;;;2.20;99.90;;;;;;5027599;28;19940;-57
2023/12/03 11:58:22;;;;;;;;;;;2.20;99.90;;;;;;5027777;28;19933;-59
2023/12/03 12:00:51;;;;;;;;;;;2.20;99.90;;;;;;5026839;28;19933;-56
2023/12/03 12:03:19;;;;;;;;;;;2.20;99.90;;;;;;5028187;28;19933;-58
2023/12/03 12:05:47;;;;;;;;;;;2.20;99.90;;;;;;5028511;28;19925;-57
2023/12/03 12:08:21;;;;;;;;;;;2.30;99.90;;;;;;5026756;28;19925;-56
2023/12/03 12:10:50;;;;;;;;;;;2.30;99.90;;;;;;5017323;28;19929;-59
2023/12/03 12:13:22;;;;;;;;;;;2.30;99.90;;;;;;5020753;28;19932;-61
2023/12/03 12:15:49;;;;;;;;;;;2.30;99.90;;;;;;5024226;28;19949;-60
2023/12/03 12:18:19;;;;;;;;;;;2.30;99.90;;;;;;5039589;28;19925;-58
2023/12/03 12:20:48;;;;;;;;;;;2.30;99.90;;;;;;5038869;28;19929;-59
2023/12/03 12:23:15;;;;;;;;;;;2.40;99.90;;;;;;5030181;28;19924;-59
2023/12/03 12:25:44;;;;;;;;;;;2.40;99.90;;;;;;5016999;28;19930;-56
2023/12/03 12:28:11;;;;;;;;;;;2.40;99.90;;;;;;5031601;28;19932;-59
2023/12/03 12:30:40;;;;;;;;;;;2.40;99.90;;;;;;5028739;28;19929;-61
2023/12/03 12:33:08;;;;;;;;;;;2.40;99.90;;;;;;5030918;28;19925;-61
2023/12/03 12:35:39;;;;;;;;;;;2.40;99.90;;;;;;5014417;28;20444;-59
2023/12/03 12:38:07;;;;;;;;;;;2.50;99.90;;;;;;5018322;28;19929;-58
2023/12/03 12:40:39;;;;;;;;;;;2.50;99.90;;;;;;5026280;28;19956;-59
2023/12/03 12:43:09;;;;;;;;;;;2.50;99.90;;;;;;5023589;28;19940;-59
2023/12/03 12:45:38;;;;;;;;;;;2.50;99.90;;;;;;5025856;28;20315;-60
2023/12/03 12:48:26;;;;;;;;;;;2.50;99.90;;;;;;5028629;28;19937;-59
2023/12/03 12:50:54;;;;;;;;;;;2.50;99.90;;;;;;5032178;28;20247;-59
2023/12/03 12:53:22;;;;;;;;;;;2.50;99.90;;;;;;5024617;28;19932;-58
2023/12/03 12:55:50;;;;;;;;;;;2.60;99.90;;;;;;5030294;28;19932;-58
2023/12/03 12:58:18;;;;;;;;;;;2.60;99.90;;;;;;5030236;28;19932;-60
2023/12/03 13:00:45;;;;;;;;;;;2.60;99.90;;;;;;5029024;28;20369;-58
2023/12/03 13:03:13;;;;;;;;;;;2.60;99.90;;;;;;5030322;28;20335;-59
2023/12/03 13:05:42;;;;;;;;;;;2.60;99.90;;;;;;5030264;28;19944;-58
2023/12/03 13:08:09;;;;;;;;;;;2.70;99.90;;;;;;5026738;28;19925;-58
2023/12/03 13:10:38;;;;;;;;;;;2.70;99.90;;;;;;5030321;28;20373;-57
2023/12/03 13:13:07;;;;;;;;;;;2.70;99.90;;;;;;5030047;28;20329;-57
2023/12/03 13:15:35;;;;;;;;;;;2.70;99.90;;;;;;5029236;28;19929;-58
2023/12/03 13:18:04;;;;;;;;;;;2.80;99.90;;;;;;5028009;28;20290;-58
2023/12/03 13:20:46;;;;;;;;;;;2.80;99.90;;;;;;5042091;28;19928;-57
2023/12/03 13:23:14;;;;;;;;;;;2.90;99.90;;;;;;5028928;28;19925;-57
2023/12/03 13:25:42;;;;;;;;;;;2.90;99.90;;;;;;5029597;28;19944;-56
2023/12/03 13:28:10;;;;;;;;;;;2.90;99.90;;;;;;5029835;28;20397;-57
2023/12/03 13:30:38;;;;;;;;;;;2.90;99.90;;;;;;5029176;28;20266;-56
2023/12/03 13:33:06;;;;;;;;;;;2.90;99.90;;;;;;5029346;28;20401;-57
2023/12/03 13:35:34;;;;;;;;;;;2.90;99.90;;;;;;5029089;28;19933;-56
2023/12/03 13:38:01;;;;;;;;;;;2.90;99.90;;;;;;5026617;28;19940;-57
2023/12/03 13:40:30;;;;;;;;;;;3.00;99.90;;;;;;5022573;28;20004;-58
2023/12/03 13:42:58;;;;;;;;;;;3.00;99.90;;;;;;5036745;28;19925;-57
2023/12/03 13:45:25;;;;;;;;;;;3.00;99.90;;;;;;5048664;28;19925;-57
2023/12/03 13:47:53;;;;;;;;;;;3.00;99.90;;;;;;5044710;28;19929;-58
2023/12/03 13:50:21;;;;;;;;;;;3.00;99.90;;;;;;5036900;28;19925;-56
2023/12/03 13:52:49;;;;;;;;;;;3.00;99.90;;;;;;5031320;28;20452;-56
2023/12/03 13:55:18;;;;;;;;;;;3.10;99.90;;;;;;5027446;28;19925;-57
2023/12/03 13:57:46;;;;;;;;;;;3.10;99.90;;;;;;5028129;28;20409;-56
2023/12/03 14:00:18;;;;;;;;;;;3.10;99.90;;;;;;5029480;28;20539;-55
2023/12/03 14:02:48;;;;;;;;;;;3.10;99.90;;;;;;5027864;28;20321;-57
2023/12/03 14:05:17;;;;;;;;;;;3.00;99.90;;;;;;5029158;28;20360;-57
2023/12/03 14:07:55;;;;;;;;;;;3.00;99.90;;;;;;5029926;28;19928;-58
2023/12/03 14:10:29;;;;;;;;;;;3.00;99.90;;;;;;5027151;28;19925;-56
2023/12/03 14:12:57;;;;;;;;;;;3.00;99.90;;;;;;5028720;28;19936;-57
2023/12/03 14:15:25;;;;;;;;;;;3.00;99.90;;;;;;5027698;28;20403;-58
2023/12/03 14:17:52;;;;;;;;;;;3.00;99.90;;;;;;5032204;28;19924;-57
2023/12/03 14:20:20;;;;;;;;;;;2.90;99.90;;;;;;5048931;28;20270;-57
2023/12/03 14:22:51;;;;;;;;;;;2.90;99.90;;;;;;5037715;28;19936;-55
2023/12/03 14:25:19;;;;;;;;;;;2.90;99.90;;;;;;5043058;28;20293;-56
2023/12/03 14:27:47;;;;;;;;;;;2.90;99.90;;;;;;5028442;28;19933;-56
2023/12/03 14:30:17;;;;;;;;;;;2.80;99.90;;;;;;5028697;28;19927;-57
2023/12/03 14:32:45;;;;;;;;;;;2.80;99.90;;;;;;5028420;28;19940;-57
2023/12/03 14:35:13;;;;;;;;;;;2.80;99.90;;;;;;5028421;28;19925;-57
2023/12/03 14:37:41;;;;;;;;;;;2.80;99.90;;;;;;5031756;28;19929;-56
2023/12/03 14:40:13;;;;;;;;;;;2.80;99.90;;;;;;5017357;28;20373;-57
2023/12/03 14:42:45;;;;;;;;;;;2.80;99.90;;;;;;5028303;28;20385;-59